Haywood, Alabama
Current Conditions -  °F | °C
As of 5:53 PM on Friday 19 Dec 2014 (Local Time) from KANB Reporting Station
Overcast Overcast  
Wind Chill: 47°   Ceiling: 11000
Heat Index: 47°   Visibility: 10mi
Dew Point: 34°   Wind: 0mph
Humidity: 61%   Direction: NA
Pressure: 30.17"   Gusts: NA
Location:  33.2829°N, 85.491°W
Report Text: KANB 192353Z AUTO 00000KT 10SM OVC110 08/01 A3017 RMK AO2 SLP225 T00830011 10100 20078 51016
Loading
Personal Weather Stations






























Interactive Weather Map New forecast layout! Learn more

10-Day Weather Forecast

Advertisements
Track Severe Weather on mobile